createdAt,value
2017-08-19T00:03:19.846Z,100460
2017-08-19T00:08:23.030Z,100458
2017-08-19T00:13:26.209Z,100449
2017-08-19T00:18:29.515Z,100458
2017-08-19T00:23:32.678Z,100458
2017-08-19T00:28:36.697Z,100463
2017-08-19T00:33:39.873Z,100457
2017-08-19T00:38:43.084Z,100458
2017-08-19T00:43:46.267Z,100459
2017-08-19T00:48:49.446Z,100453
2017-08-19T00:53:52.609Z,100451
2017-08-19T00:58:55.802Z,100456
2017-08-19T01:03:58.995Z,100452
2017-08-19T01:09:02.184Z,100452
2017-08-19T01:14:05.368Z,100457
2017-08-19T01:19:08.645Z,100437
2017-08-19T01:24:11.825Z,100442
2017-08-19T01:29:15.053Z,100441
2017-08-19T01:34:18.249Z,100447
2017-08-19T01:39:21.420Z,100453
2017-08-19T01:44:24.637Z,100456
2017-08-19T01:49:27.801Z,100451
2017-08-19T01:54:30.985Z,100459
2017-08-19T01:59:34.181Z,100468
2017-08-19T02:04:37.525Z,100476
2017-08-19T02:09:40.724Z,100468
2017-08-19T02:14:44.162Z,100480
2017-08-19T02:19:47.461Z,100474
2017-08-19T02:24:50.965Z,100470
2017-08-19T02:29:54.153Z,100478
2017-08-19T02:34:57.366Z,100477
2017-08-19T02:40:00.638Z,100483
2017-08-19T02:45:03.835Z,100481
2017-08-19T02:50:07.011Z,100483
2017-08-19T02:55:10.206Z,100497
2017-08-19T03:00:13.380Z,100502
2017-08-19T03:05:16.597Z,100507
2017-08-19T03:10:19.807Z,100496
2017-08-19T03:15:23.366Z,100507
2017-08-19T03:20:26.573Z,100508
2017-08-19T03:25:29.781Z,100517
2017-08-19T03:30:32.955Z,100518
2017-08-19T03:35:36.278Z,100512
2017-08-19T03:40:39.436Z,100514
2017-08-19T03:45:42.728Z,100514
2017-08-19T03:50:45.904Z,100530
2017-08-19T03:55:49.083Z,100531
2017-08-19T04:00:52.512Z,100540
2017-08-19T04:05:55.709Z,100545
2017-08-19T04:10:58.905Z,100538
2017-08-19T04:16:02.112Z,100539
2017-08-19T04:21:05.258Z,100548
2017-08-19T04:26:08.476Z,100551
2017-08-19T04:31:11.677Z,100552
2017-08-19T04:36:14.862Z,100552
2017-08-19T04:41:18.029Z,100562
2017-08-19T04:46:21.337Z,100561
2017-08-19T04:51:24.534Z,100561
2017-08-19T04:56:27.743Z,100568
2017-08-19T05:01:30.949Z,100561
2017-08-19T05:06:34.124Z,100561
2017-08-19T05:11:37.319Z,100561
2017-08-19T05:16:40.549Z,100573
2017-08-19T05:21:43.732Z,100563
2017-08-19T05:26:46.925Z,100572
2017-08-19T05:31:50.145Z,100569
2017-08-19T05:36:53.368Z,100560
2017-08-19T05:41:56.583Z,100560
2017-08-19T05:46:59.779Z,100561
2017-08-19T05:52:02.962Z,100562
2017-08-19T05:57:06.213Z,100568
2017-08-19T06:02:09.406Z,100580
2017-08-19T06:07:12.613Z,100574
2017-08-19T06:12:15.804Z,100583
2017-08-19T06:17:19.017Z,100596
2017-08-19T06:22:22.238Z,100606
2017-08-19T06:27:25.450Z,100616
2017-08-19T06:32:28.643Z,100622
2017-08-19T06:37:31.826Z,100623
2017-08-19T06:42:35.034Z,100619
2017-08-19T06:47:38.253Z,100618
2017-08-19T06:52:41.450Z,100630
2017-08-19T06:57:44.652Z,100642
2017-08-19T07:02:47.851Z,100652
2017-08-19T07:07:51.093Z,100655
2017-08-19T07:12:54.313Z,100665
2017-08-19T07:17:57.507Z,100667
2017-08-19T07:23:00.706Z,100660
2017-08-19T07:28:04.022Z,100673
2017-08-19T07:33:07.193Z,100673
2017-08-19T07:38:10.409Z,100677
2017-08-19T07:43:13.618Z,100691
2017-08-19T07:48:16.828Z,100693
2017-08-19T07:53:19.985Z,100693
2017-08-19T07:58:23.209Z,100697
2017-08-19T08:03:27.582Z,100701
2017-08-19T08:08:30.758Z,100708
2017-08-19T08:13:33.948Z,100706
2017-08-19T08:18:37.127Z,100712
2017-08-19T08:23:40.342Z,100710
2017-08-19T08:28:43.532Z,100713
2017-08-19T08:33:46.784Z,100705
2017-08-19T08:38:50.217Z,100716
2017-08-19T08:43:53.433Z,100706
2017-08-19T08:48:56.626Z,100710
2017-08-19T08:53:59.894Z,100713
2017-08-19T08:59:03.073Z,100718
2017-08-19T09:04:06.265Z,100714
2017-08-19T09:09:09.508Z,100715
2017-08-19T09:14:12.670Z,100707
2017-08-19T09:19:15.863Z,100705
2017-08-19T09:24:19.077Z,100703
2017-08-19T09:29:22.270Z,100701
2017-08-19T09:34:25.512Z,100710
2017-08-19T09:39:28.686Z,100701
2017-08-19T09:44:31.882Z,100702
2017-08-19T09:49:35.064Z,100704
2017-08-19T09:54:38.270Z,100698
2017-08-19T09:59:41.493Z,100695
2017-08-19T10:04:44.724Z,100689
2017-08-19T10:09:48.618Z,100673
2017-08-19T10:14:51.922Z,100681
2017-08-19T10:19:55.123Z,100685
2017-08-19T10:24:58.316Z,100682
2017-08-19T10:30:01.547Z,100682
2017-08-19T10:35:04.732Z,100674
2017-08-19T10:40:08.113Z,100685
2017-08-19T10:45:11.359Z,100681
2017-08-19T10:50:14.722Z,100683
2017-08-19T10:55:18.051Z,100692
2017-08-19T11:00:21.237Z,100696
2017-08-19T11:05:24.430Z,100684
2017-08-19T11:10:27.628Z,100687
2017-08-19T11:15:30.830Z,100701
2017-08-19T11:20:34.025Z,100698
2017-08-19T11:25:37.226Z,100702
2017-08-19T11:30:40.395Z,100708
2017-08-19T11:35:43.587Z,100702
2017-08-19T11:40:46.898Z,100694
2017-08-19T11:45:50.118Z,100697
2017-08-19T11:50:53.338Z,100697
2017-08-19T11:55:56.557Z,100714
2017-08-19T12:00:59.773Z,100713
2017-08-19T12:06:03.005Z,100721
2017-08-19T12:11:06.199Z,100718
2017-08-19T12:16:09.390Z,100722
2017-08-19T12:21:12.565Z,100718
2017-08-19T12:26:15.751Z,100713
2017-08-19T12:31:18.946Z,100709
2017-08-19T12:36:22.145Z,100717
2017-08-19T12:41:25.348Z,100713
2017-08-19T12:46:28.546Z,100717
2017-08-19T12:51:31.738Z,100713
2017-08-19T12:56:34.942Z,100715
2017-08-19T13:01:39.246Z,100719
2017-08-19T13:06:42.452Z,100713
2017-08-19T13:11:45.626Z,100717
2017-08-19T13:16:48.954Z,100724
2017-08-19T13:21:52.278Z,100726
2017-08-19T13:26:55.459Z,100727
2017-08-19T13:31:58.651Z,100728
2017-08-19T13:37:01.877Z,100726
2017-08-19T13:42:05.094Z,100723
2017-08-19T13:47:08.277Z,100729
2017-08-19T13:52:11.493Z,100733
2017-08-19T13:57:14.706Z,100739
2017-08-19T14:02:17.911Z,100733
2017-08-19T14:07:21.086Z,100737
2017-08-19T14:12:24.323Z,100741
2017-08-19T14:17:27.533Z,100727
2017-08-19T14:22:30.761Z,100727
2017-08-19T14:27:33.985Z,100729
2017-08-19T14:32:37.238Z,100731
2017-08-19T14:37:40.474Z,100735
2017-08-19T14:42:43.719Z,100734
2017-08-19T14:47:46.941Z,100728
2017-08-19T14:52:50.137Z,100720
2017-08-19T14:57:53.339Z,100720
2017-08-19T15:02:56.727Z,100721
2017-08-19T15:07:59.919Z,100718
2017-08-19T15:13:03.112Z,100715
2017-08-19T15:18:06.353Z,100720
2017-08-19T15:23:09.568Z,100730
2017-08-19T15:28:12.745Z,100727
2017-08-19T15:33:15.963Z,100724
2017-08-19T15:38:19.173Z,100728
2017-08-19T15:43:22.380Z,100725
2017-08-19T15:48:25.585Z,100732
2017-08-19T15:53:28.898Z,100732
2017-08-19T15:58:32.335Z,100738
2017-08-19T16:03:35.509Z,100734
2017-08-19T16:08:38.897Z,100737
2017-08-19T16:13:42.125Z,100726
2017-08-19T16:18:45.384Z,100736
2017-08-19T16:23:48.594Z,100740
2017-08-19T16:28:51.797Z,100732
2017-08-19T16:33:54.995Z,100738
2017-08-19T16:38:58.172Z,100741
2017-08-19T16:44:01.374Z,100727
2017-08-19T16:49:04.582Z,100733
2017-08-19T16:54:07.802Z,100735
2017-08-19T16:59:11.012Z,100740
2017-08-19T17:04:14.206Z,100746
2017-08-19T17:09:17.427Z,100751
2017-08-19T17:14:20.633Z,100743
2017-08-19T17:19:23.838Z,100751
2017-08-19T17:24:27.097Z,100748
2017-08-19T17:29:30.285Z,100750
2017-08-19T17:34:33.666Z,100750
2017-08-19T17:39:36.895Z,100764
2017-08-19T17:44:40.061Z,100759
2017-08-19T17:49:44.233Z,100757
2017-08-19T17:54:47.411Z,100770
2017-08-19T17:59:50.597Z,100782
2017-08-19T18:10:03.365Z,100797
2017-08-19T18:15:06.690Z,100807
2017-08-19T18:20:09.907Z,100817
2017-08-19T18:25:13.126Z,100821
2017-08-19T18:30:16.350Z,100827
2017-08-19T18:35:19.654Z,100837
2017-08-19T18:40:22.854Z,100858
2017-08-19T18:45:26.059Z,100869
2017-08-19T18:50:29.277Z,100885
2017-08-19T18:55:32.491Z,100893
2017-08-19T19:00:35.677Z,100888
2017-08-19T19:05:38.911Z,100893
2017-08-19T19:10:42.133Z,100905
2017-08-19T19:15:45.364Z,100900
2017-08-19T19:20:48.592Z,100915
2017-08-19T19:25:51.804Z,100915
2017-08-19T19:30:55.000Z,100916
2017-08-19T19:35:58.241Z,100916
2017-08-19T19:41:01.428Z,100913
2017-08-19T19:46:04.633Z,100918
2017-08-19T19:51:07.837Z,100909
2017-08-19T19:56:11.055Z,100910
2017-08-19T20:01:14.239Z,100919
2017-08-19T20:06:17.467Z,100919
2017-08-19T20:11:20.687Z,100915
2017-08-19T20:16:23.886Z,100923
2017-08-19T20:21:27.086Z,100929
2017-08-19T20:26:30.265Z,100921
2017-08-19T20:31:33.460Z,100923
2017-08-19T20:36:36.835Z,100930
2017-08-19T20:41:40.138Z,100926
2017-08-19T20:46:43.357Z,100926
2017-08-19T20:51:46.545Z,100929
2017-08-19T20:56:49.859Z,100929
2017-08-19T21:01:53.054Z,100932
2017-08-19T21:06:56.240Z,100927
2017-08-19T21:11:59.461Z,100934
2017-08-19T21:17:02.663Z,100935
2017-08-19T21:22:05.819Z,100942
2017-08-19T21:27:09.017Z,100955
2017-08-19T21:32:12.271Z,100956
2017-08-19T21:37:15.495Z,100956
2017-08-19T21:42:18.913Z,100945
2017-08-19T21:47:22.130Z,100940
2017-08-19T21:52:25.399Z,100938
2017-08-19T21:57:28.830Z,100943
2017-08-19T22:02:32.047Z,100941
2017-08-19T22:07:35.266Z,100939
2017-08-19T22:12:38.450Z,100939
2017-08-19T22:17:41.633Z,100939
2017-08-19T22:22:44.838Z,100939
2017-08-19T22:27:48.029Z,100934
2017-08-19T22:32:51.245Z,100936
2017-08-19T22:37:54.453Z,100938
2017-08-19T22:42:57.707Z,100937
2017-08-19T22:48:00.911Z,100945
2017-08-19T22:53:04.110Z,100945
2017-08-19T22:58:07.315Z,100934
2017-08-19T23:03:10.533Z,100950
2017-08-19T23:08:13.737Z,100935
2017-08-19T23:13:16.953Z,100928
2017-08-19T23:18:20.186Z,100933
2017-08-19T23:23:23.461Z,100941
2017-08-19T23:28:26.655Z,100935
2017-08-19T23:33:29.865Z,100928
2017-08-19T23:38:33.066Z,100930
2017-08-19T23:43:36.282Z,100926
2017-08-19T23:48:39.477Z,100936
2017-08-19T23:53:42.661Z,100935
2017-08-19T23:58:45.858Z,100947
